sensor_id;sensor_type;location;lat;lon;timestamp;pressure;altitude;pressure_sealevel;temperature;humidity
19761;BME280;10039;42.632;23.408;2023-04-09T00:01:09;95212.28;;;8.41;77.99
19761;BME280;10039;42.632;23.408;2023-04-09T00:03:36;95188.88;;;8.15;77.96
19761;BME280;10039;42.632;23.408;2023-04-09T00:06:03;95204.09;;;8.11;77.67
19761;BME280;10039;42.632;23.408;2023-04-09T00:08:29;95208.59;;;8.25;77.69
19761;BME280;10039;42.632;23.408;2023-04-09T00:10:56;95223.72;;;8.31;77.40
19761;BME280;10039;42.632;23.408;2023-04-09T00:13:22;95177.53;;;8.08;76.91
19761;BME280;10039;42.632;23.408;2023-04-09T00:15:48;95189.34;;;8.00;77.08
19761;BME280;10039;42.632;23.408;2023-04-09T00:18:14;95176.78;;;8.11;76.63
19761;BME280;10039;42.632;23.408;2023-04-09T00:20:42;95201.75;;;8.24;77.18
19761;BME280;10039;42.632;23.408;2023-04-09T00:23:08;95207.84;;;8.21;76.98
19761;BME280;10039;42.632;23.408;2023-04-09T00:25:34;95180.63;;;7.96;76.84
19761;BME280;10039;42.632;23.408;2023-04-09T00:28:00;95219.22;;;8.25;76.95
19761;BME280;10039;42.632;23.408;2023-04-09T00:30:35;95175.00;;;7.87;76.76
19761;BME280;10039;42.632;23.408;2023-04-09T00:33:01;95181.81;;;7.88;76.74
19761;BME280;10039;42.632;23.408;2023-04-09T00:35:28;95199.63;;;7.98;77.00
19761;BME280;10039;42.632;23.408;2023-04-09T00:37:53;95201.84;;;8.06;77.33
19761;BME280;10039;42.632;23.408;2023-04-09T00:40:20;95199.66;;;7.94;77.17
19761;BME280;10039;42.632;23.408;2023-04-09T00:42:45;95184.19;;;7.69;78.49
19761;BME280;10039;42.632;23.408;2023-04-09T00:45:12;95202.66;;;7.93;77.87
19761;BME280;10039;42.632;23.408;2023-04-09T00:47:38;95179.66;;;7.69;78.46
19761;BME280;10039;42.632;23.408;2023-04-09T00:50:04;95200.06;;;7.82;78.53
19761;BME280;10039;42.632;23.408;2023-04-09T00:52:31;95203.78;;;7.99;78.03
19761;BME280;10039;42.632;23.408;2023-04-09T00:55:02;95180.66;;;7.92;77.07
19761;BME280;10039;42.632;23.408;2023-04-09T00:57:29;95179.91;;;7.92;77.18
19761;BME280;10039;42.632;23.408;2023-04-09T00:59:55;95210.53;;;8.14;76.74
19761;BME280;10039;42.632;23.408;2023-04-09T01:02:21;95210.88;;;8.23;76.28
19761;BME280;10039;42.632;23.408;2023-04-09T01:04:47;95202.53;;;8.14;76.50
19761;BME280;10039;42.632;23.408;2023-04-09T01:10:27;95227.22;;;8.14;76.96
19761;BME280;10039;42.632;23.408;2023-04-09T01:13:19;95218.19;;;8.01;77.35
19761;BME280;10039;42.632;23.408;2023-04-09T01:15:52;95198.88;;;7.94;76.72
19761;BME280;10039;42.632;23.408;2023-04-09T01:18:30;95196.63;;;7.89;76.58
19761;BME280;10039;42.632;23.408;2023-04-09T01:21:04;95244.69;;;8.22;76.54
19761;BME280;10039;42.632;23.408;2023-04-09T01:29:06;95211.28;;;8.18;76.04
19761;BME280;10039;42.632;23.408;2023-04-09T01:31:37;95210.91;;;8.12;76.12
19761;BME280;10039;42.632;23.408;2023-04-09T01:34:05;95215.94;;;8.00;77.12
19761;BME280;10039;42.632;23.408;2023-04-09T01:36:36;95187.50;;;7.90;76.97
19761;BME280;10039;42.632;23.408;2023-04-09T01:39:07;95209.81;;;8.06;76.06
19761;BME280;10039;42.632;23.408;2023-04-09T01:41:34;95240.81;;;8.34;75.14
19761;BME280;10039;42.632;23.408;2023-04-09T01:44:02;95190.88;;;8.01;75.18
19761;BME280;10039;42.632;23.408;2023-04-09T01:46:28;95203.38;;;8.04;76.07
19761;BME280;10039;42.632;23.408;2023-04-09T01:48:54;95183.03;;;7.73;76.50
19761;BME280;10039;42.632;23.408;2023-04-09T01:51:24;95206.47;;;7.92;76.20
19761;BME280;10039;42.632;23.408;2023-04-09T01:53:51;95182.59;;;7.88;75.93
19761;BME280;10039;42.632;23.408;2023-04-09T01:56:17;95211.72;;;8.02;75.43
19761;BME280;10039;42.632;23.408;2023-04-09T01:58:52;95196.31;;;7.73;75.93
19761;BME280;10039;42.632;23.408;2023-04-09T02:01:32;95229.66;;;7.81;77.19
19761;BME280;10039;42.632;23.408;2023-04-09T02:04:02;95219.06;;;7.77;76.55
19761;BME280;10039;42.632;23.408;2023-04-09T02:06:44;95228.47;;;7.96;76.99
19761;BME280;10039;42.632;23.408;2023-04-09T02:09:15;95194.00;;;7.82;76.06
19761;BME280;10039;42.632;23.408;2023-04-09T02:11:44;95207.16;;;8.06;75.81
19761;BME280;10039;42.632;23.408;2023-04-09T02:14:11;95250.38;;;8.24;74.89
19761;BME280;10039;42.632;23.408;2023-04-09T02:16:39;95184.19;;;7.72;75.52
19761;BME280;10039;42.632;23.408;2023-04-09T02:19:05;95190.25;;;7.72;75.84
19761;BME280;10039;42.632;23.408;2023-04-09T02:21:31;95220.56;;;7.78;76.04
19761;BME280;10039;42.632;23.408;2023-04-09T02:24:00;95226.25;;;7.84;75.80
19761;BME280;10039;42.632;23.408;2023-04-09T02:26:26;95199.75;;;7.70;75.76
19761;BME280;10039;42.632;23.408;2023-04-09T02:28:52;95180.91;;;7.33;76.71
19761;BME280;10039;42.632;23.408;2023-04-09T02:31:18;95210.09;;;7.44;76.87
19761;BME280;10039;42.632;23.408;2023-04-09T02:33:43;95189.28;;;7.28;76.77
19761;BME280;10039;42.632;23.408;2023-04-09T02:36:12;95192.31;;;7.23;77.21
19761;BME280;10039;42.632;23.408;2023-04-09T02:38:42;95184.00;;;7.11;77.37
19761;BME280;10039;42.632;23.408;2023-04-09T02:41:08;95187.06;;;7.16;76.97
19761;BME280;10039;42.632;23.408;2023-04-09T02:43:37;95184.41;;;7.06;76.93
19761;BME280;10039;42.632;23.408;2023-04-09T02:46:03;95230.22;;;7.41;77.09
19761;BME280;10039;42.632;23.408;2023-04-09T02:48:29;95232.81;;;7.59;77.08
19761;BME280;10039;42.632;23.408;2023-04-09T02:50:55;95208.19;;;7.44;76.31
19761;BME280;10039;42.632;23.408;2023-04-09T02:53:21;95210.47;;;7.39;76.52
19761;BME280;10039;42.632;23.408;2023-04-09T02:55:47;95197.59;;;7.37;76.21
19761;BME280;10039;42.632;23.408;2023-04-09T02:58:13;95171.06;;;7.30;75.92
19761;BME280;10039;42.632;23.408;2023-04-09T03:00:39;95181.25;;;7.46;75.94
19761;BME280;10039;42.632;23.408;2023-04-09T03:03:05;95169.22;;;7.10;76.13
19761;BME280;10039;42.632;23.408;2023-04-09T03:05:31;95216.16;;;7.34;76.14
19761;BME280;10039;42.632;23.408;2023-04-09T03:07:57;95209.03;;;7.10;76.40
19761;BME280;10039;42.632;23.408;2023-04-09T03:10:24;95230.28;;;7.13;76.77
19761;BME280;10039;42.632;23.408;2023-04-09T03:12:49;95186.34;;;6.77;77.36
19761;BME280;10039;42.632;23.408;2023-04-09T03:15:15;95174.97;;;6.70;77.77
19761;BME280;10039;42.632;23.408;2023-04-09T03:17:41;95195.06;;;6.74;77.56
19761;BME280;10039;42.632;23.408;2023-04-09T03:20:07;95184.09;;;6.65;77.04
19761;BME280;10039;42.632;23.408;2023-04-09T03:22:37;95206.38;;;7.03;77.60
19761;BME280;10039;42.632;23.408;2023-04-09T03:25:02;95202.22;;;6.98;76.75
19761;BME280;10039;42.632;23.408;2023-04-09T03:27:28;95225.72;;;7.07;77.10
19761;BME280;10039;42.632;23.408;2023-04-09T03:29:57;95162.84;;;6.86;76.47
19761;BME280;10039;42.632;23.408;2023-04-09T03:32:23;95238.56;;;7.22;76.13
19761;BME280;10039;42.632;23.408;2023-04-09T03:34:49;95177.22;;;6.99;76.22
19761;BME280;10039;42.632;23.408;2023-04-09T03:37:15;95197.66;;;7.16;75.87
19761;BME280;10039;42.632;23.408;2023-04-09T03:39:41;95197.69;;;7.09;75.74
19761;BME280;10039;42.632;23.408;2023-04-09T03:42:07;95198.44;;;6.99;76.05
19761;BME280;10039;42.632;23.408;2023-04-09T03:44:33;95213.97;;;7.11;75.90
19761;BME280;10039;42.632;23.408;2023-04-09T03:47:01;95206.78;;;6.94;75.82
19761;BME280;10039;42.632;23.408;2023-04-09T03:49:28;95183.31;;;6.82;76.18
19761;BME280;10039;42.632;23.408;2023-04-09T03:51:54;95190.50;;;6.85;76.84
19761;BME280;10039;42.632;23.408;2023-04-09T03:54:20;95212.84;;;7.05;76.67
19761;BME280;10039;42.632;23.408;2023-04-09T03:56:46;95251.50;;;7.10;76.64
19761;BME280;10039;42.632;23.408;2023-04-09T03:59:12;95222.69;;;6.94;76.93
19761;BME280;10039;42.632;23.408;2023-04-09T04:01:38;95218.94;;;6.92;77.03
19761;BME280;10039;42.632;23.408;2023-04-09T04:04:04;95194.28;;;6.81;77.17
19761;BME280;10039;42.632;23.408;2023-04-09T04:06:32;95253.00;;;7.25;76.91
19761;BME280;10039;42.632;23.408;2023-04-09T04:09:03;95222.69;;;7.01;77.09
19761;BME280;10039;42.632;23.408;2023-04-09T04:11:37;95235.22;;;6.94;78.00
19761;BME280;10039;42.632;23.408;2023-04-09T04:14:03;95178.41;;;6.77;77.48
19761;BME280;10039;42.632;23.408;2023-04-09T04:16:29;95185.22;;;6.78;77.72
19761;BME280;10039;42.632;23.408;2023-04-09T04:18:55;95183.28;;;7.03;77.21
19761;BME280;10039;42.632;23.408;2023-04-09T04:21:24;95193.88;;;7.07;76.84
19761;BME280;10039;42.632;23.408;2023-04-09T04:23:53;95216.97;;;7.17;76.90
19761;BME280;10039;42.632;23.408;2023-04-09T04:26:18;95232.09;;;7.37;76.94
19761;BME280;10039;42.632;23.408;2023-04-09T04:28:47;95185.56;;;6.94;77.15
19761;BME280;10039;42.632;23.408;2023-04-09T04:31:13;95234.03;;;7.23;77.02
19761;BME280;10039;42.632;23.408;2023-04-09T04:33:40;95196.53;;;7.03;77.43
19761;BME280;10039;42.632;23.408;2023-04-09T04:36:07;95231.00;;;7.24;77.16
19761;BME280;10039;42.632;23.408;2023-04-09T04:38:34;95258.66;;;7.34;77.95
19761;BME280;10039;42.632;23.408;2023-04-09T04:41:00;95221.88;;;7.32;77.15
19761;BME280;10039;42.632;23.408;2023-04-09T04:43:26;95229.84;;;7.29;77.71
19761;BME280;10039;42.632;23.408;2023-04-09T04:45:52;95240.47;;;7.32;77.78
19761;BME280;10039;42.632;23.408;2023-04-09T04:48:23;95204.47;;;7.14;77.21
19761;BME280;10039;42.632;23.408;2023-04-09T04:50:57;95235.13;;;7.36;77.19
19761;BME280;10039;42.632;23.408;2023-04-09T04:53:23;95206.34;;;7.24;77.27
19761;BME280;10039;42.632;23.408;2023-04-09T04:55:49;95238.47;;;7.64;76.46
19761;BME280;10039;42.632;23.408;2023-04-09T04:58:16;95215.72;;;7.56;77.16
19761;BME280;10039;42.632;23.408;2023-04-09T05:00:42;95205.50;;;7.51;76.21
19761;BME280;10039;42.632;23.408;2023-04-09T05:03:08;95205.13;;;7.60;75.62
19761;BME280;10039;42.632;23.408;2023-04-09T05:05:33;95223.22;;;7.82;76.37
19761;BME280;10039;42.632;23.408;2023-04-09T05:08:00;95277.75;;;8.07;76.56
19761;BME280;10039;42.632;23.408;2023-04-09T05:10:26;95248.19;;;7.98;76.74
19761;BME280;10039;42.632;23.408;2023-04-09T05:12:52;95218.59;;;8.00;76.70
19761;BME280;10039;42.632;23.408;2023-04-09T05:15:18;95237.13;;;8.17;76.87
19761;BME280;10039;42.632;23.408;2023-04-09T05:17:44;95241.72;;;8.03;77.75
19761;BME280;10039;42.632;23.408;2023-04-09T05:20:10;95272.00;;;8.30;77.81
19761;BME280;10039;42.632;23.408;2023-04-09T05:22:36;95222.69;;;8.11;77.46
19761;BME280;10039;42.632;23.408;2023-04-09T05:25:02;95207.88;;;8.10;77.56
19761;BME280;10039;42.632;23.408;2023-04-09T05:27:28;95233.59;;;8.38;77.75
19761;BME280;10039;42.632;23.408;2023-04-09T05:29:54;95263.13;;;8.47;77.10
19761;BME280;10039;42.632;23.408;2023-04-09T05:32:22;95246.78;;;8.52;76.55
19761;BME280;10039;42.632;23.408;2023-04-09T05:35:00;95221.41;;;8.40;76.28
19761;BME280;10039;42.632;23.408;2023-04-09T05:37:29;95214.97;;;8.34;76.12
19761;BME280;10039;42.632;23.408;2023-04-09T05:39:55;95217.56;;;8.45;75.43
19761;BME280;10039;42.632;23.408;2023-04-09T05:42:21;95239.81;;;8.68;75.27
19761;BME280;10039;42.632;23.408;2023-04-09T05:44:46;95267.59;;;8.64;74.97
19761;BME280;10039;42.632;23.408;2023-04-09T05:47:12;95235.41;;;8.48;74.38
19761;BME280;10039;42.632;23.408;2023-04-09T05:49:38;95213.31;;;8.58;74.24
19761;BME280;10039;42.632;23.408;2023-04-09T05:52:04;95210.53;;;8.72;73.78
19761;BME280;10039;42.632;23.408;2023-04-09T05:54:30;95268.88;;;8.99;72.96
19761;BME280;10039;42.632;23.408;2023-04-09T05:56:56;95209.78;;;8.75;73.02
19761;BME280;10039;42.632;23.408;2023-04-09T05:59:22;95217.19;;;8.93;72.14
19761;BME280;10039;42.632;23.408;2023-04-09T06:01:50;95253.44;;;9.24;71.57
19761;BME280;10039;42.632;23.408;2023-04-09T06:04:17;95242.34;;;9.29;72.00
19761;BME280;10039;42.632;23.408;2023-04-09T06:06:43;95213.34;;;9.01;71.40
19761;BME280;10039;42.632;23.408;2023-04-09T06:09:08;95241.94;;;9.34;71.68
19761;BME280;10039;42.632;23.408;2023-04-09T06:11:35;95216.00;;;9.01;71.05
19761;BME280;10039;42.632;23.408;2023-04-09T06:14:01;95217.50;;;9.02;70.26
19761;BME280;10039;42.632;23.408;2023-04-09T06:16:26;95229.03;;;9.29;70.26
19761;BME280;10039;42.632;23.408;2023-04-09T06:18:55;95233.50;;;9.39;70.25
19761;BME280;10039;42.632;23.408;2023-04-09T06:21:22;95236.31;;;9.59;70.31
19761;BME280;10039;42.632;23.408;2023-04-09T06:23:47;95229.47;;;9.61;69.68
19761;BME280;10039;42.632;23.408;2023-04-09T06:26:13;95261.13;;;9.89;69.05
19761;BME280;10039;42.632;23.408;2023-04-09T06:28:39;95219.16;;;9.63;67.84
19761;BME280;10039;42.632;23.408;2023-04-09T06:31:14;95277.91;;;9.86;67.03
19761;BME280;10039;42.632;23.408;2023-04-09T06:33:40;95241.56;;;9.66;66.97
19761;BME280;10039;42.632;23.408;2023-04-09T06:36:06;95208.16;;;9.61;67.09
19761;BME280;10039;42.632;23.408;2023-04-09T06:38:31;95261.72;;;10.03;66.93
19761;BME280;10039;42.632;23.408;2023-04-09T06:40:57;95226.81;;;9.91;67.04
19761;BME280;10039;42.632;23.408;2023-04-09T06:43:23;95222.28;;;9.88;66.04
19761;BME280;10039;42.632;23.408;2023-04-09T06:45:49;95259.91;;;10.27;66.14
19761;BME280;10039;42.632;23.408;2023-04-09T06:48:15;95240.41;;;10.03;65.82
19761;BME280;10039;42.632;23.408;2023-04-09T06:50:41;95246.22;;;10.25;66.60
19761;BME280;10039;42.632;23.408;2023-04-09T06:53:06;95240.22;;;10.44;65.39
19761;BME280;10039;42.632;23.408;2023-04-09T06:55:35;95244.22;;;10.32;65.19
19761;BME280;10039;42.632;23.408;2023-04-09T06:58:01;95244.06;;;10.16;65.46
19761;BME280;10039;42.632;23.408;2023-04-09T07:00:27;95259.78;;;10.07;66.28
19761;BME280;10039;42.632;23.408;2023-04-09T07:02:58;95254.47;;;10.04;66.16
19761;BME280;10039;42.632;23.408;2023-04-09T07:05:24;95278.44;;;10.07;66.76
19761;BME280;10039;42.632;23.408;2023-04-09T07:07:50;95250.41;;;9.93;67.74
19761;BME280;10039;42.632;23.408;2023-04-09T07:10:16;95270.53;;;9.97;67.37
19761;BME280;10039;42.632;23.408;2023-04-09T07:12:42;95288.06;;;9.98;67.81
19761;BME280;10039;42.632;23.408;2023-04-09T07:15:08;95235.88;;;9.67;66.16
19761;BME280;10039;42.632;23.408;2023-04-09T07:17:36;95267.84;;;10.01;65.61
19761;BME280;10039;42.632;23.408;2023-04-09T07:20:05;95290.06;;;10.24;64.83
19761;BME280;10039;42.632;23.408;2023-04-09T07:22:30;95275.69;;;10.14;64.60
19761;BME280;10039;42.632;23.408;2023-04-09T07:25:00;95300.84;;;10.13;64.57
19761;BME280;10039;42.632;23.408;2023-04-09T07:27:34;95232.94;;;9.88;64.85
19761;BME280;10039;42.632;23.408;2023-04-09T07:30:00;95246.72;;;9.83;64.57
19761;BME280;10039;42.632;23.408;2023-04-09T07:32:26;95248.44;;;9.97;65.02
19761;BME280;10039;42.632;23.408;2023-04-09T07:34:55;95240.50;;;9.93;64.78
19761;BME280;10039;42.632;23.408;2023-04-09T07:37:24;95245.38;;;10.02;63.52
19761;BME280;10039;42.632;23.408;2023-04-09T07:39:51;95234.38;;;9.96;63.67
19761;BME280;10039;42.632;23.408;2023-04-09T07:42:18;95248.53;;;10.23;63.98
19761;BME280;10039;42.632;23.408;2023-04-09T07:44:44;95284.78;;;10.47;63.33
19761;BME280;10039;42.632;23.408;2023-04-09T07:47:10;95279.44;;;10.47;62.90
19761;BME280;10039;42.632;23.408;2023-04-09T07:49:37;95272.66;;;10.42;62.76
19761;BME280;10039;42.632;23.408;2023-04-09T07:52:03;95301.13;;;10.79;62.82
19761;BME280;10039;42.632;23.408;2023-04-09T07:54:29;95262.13;;;10.58;62.17
19761;BME280;10039;42.632;23.408;2023-04-09T07:56:59;95305.91;;;10.64;62.85
19761;BME280;10039;42.632;23.408;2023-04-09T07:59:25;95293.31;;;10.65;62.98
19761;BME280;10039;42.632;23.408;2023-04-09T08:01:52;95295.22;;;10.64;63.17
19761;BME280;10039;42.632;23.408;2023-04-09T08:04:18;95270.75;;;10.43;62.34
19761;BME280;10039;42.632;23.408;2023-04-09T08:06:44;95293.69;;;10.67;62.75
19761;BME280;10039;42.632;23.408;2023-04-09T08:09:15;95291.00;;;10.67;62.87
19761;BME280;10039;42.632;23.408;2023-04-09T08:11:41;95298.50;;;10.75;63.05
19761;BME280;10039;42.632;23.408;2023-04-09T08:14:06;95270.41;;;10.67;62.78
19761;BME280;10039;42.632;23.408;2023-04-09T08:16:38;95303.13;;;10.45;63.14
19761;BME280;10039;42.632;23.408;2023-04-09T08:19:05;95284.16;;;10.36;63.26
19761;BME280;10039;42.632;23.408;2023-04-09T08:21:30;95311.06;;;10.78;63.32
19761;BME280;10039;42.632;23.408;2023-04-09T08:23:56;95309.47;;;10.81;63.39
19761;BME280;10039;42.632;23.408;2023-04-09T08:26:25;95305.06;;;10.41;62.89
19761;BME280;10039;42.632;23.408;2023-04-09T08:28:51;95301.56;;;10.47;63.87
19761;BME280;10039;42.632;23.408;2023-04-09T08:31:17;95310.97;;;10.55;63.70
19761;BME280;10039;42.632;23.408;2023-04-09T08:33:43;95296.53;;;10.53;63.87
19761;BME280;10039;42.632;23.408;2023-04-09T08:36:08;95294.66;;;10.50;63.80
19761;BME280;10039;42.632;23.408;2023-04-09T08:38:35;95301.59;;;10.44;62.50
19761;BME280;10039;42.632;23.408;2023-04-09T08:41:01;95291.03;;;10.63;63.87
19761;BME280;10039;42.632;23.408;2023-04-09T08:43:27;95279.63;;;10.63;63.25
19761;BME280;10039;42.632;23.408;2023-04-09T08:45:54;95263.84;;;10.72;62.93
19761;BME280;10039;42.632;23.408;2023-04-09T08:48:23;95269.09;;;10.79;62.87
19761;BME280;10039;42.632;23.408;2023-04-09T08:50:50;95309.03;;;11.12;62.42
19761;BME280;10039;42.632;23.408;2023-04-09T08:53:16;95291.16;;;11.06;62.71
19761;BME280;10039;42.632;23.408;2023-04-09T08:55:47;95289.91;;;11.13;63.13
19761;BME280;10039;42.632;23.408;2023-04-09T08:58:12;95253.06;;;11.02;62.10
19761;BME280;10039;42.632;23.408;2023-04-09T09:00:38;95277.94;;;11.21;62.08
19761;BME280;10039;42.632;23.408;2023-04-09T09:03:06;95304.22;;;11.26;62.54
19761;BME280;10039;42.632;23.408;2023-04-09T09:05:42;95300.38;;;11.27;62.53
19761;BME280;10039;42.632;23.408;2023-04-09T09:08:23;95261.56;;;11.19;62.62
19761;BME280;10039;42.632;23.408;2023-04-09T09:10:49;95255.88;;;11.40;61.54
19761;BME280;10039;42.632;23.408;2023-04-09T09:13:22;95293.63;;;11.65;60.73
19761;BME280;10039;42.632;23.408;2023-04-09T09:15:50;95252.75;;;11.22;61.38
19761;BME280;10039;42.632;23.408;2023-04-09T09:18:20;95269.59;;;11.19;61.67
19761;BME280;10039;42.632;23.408;2023-04-09T09:20:46;95241.25;;;11.03;61.72
19761;BME280;10039;42.632;23.408;2023-04-09T09:23:12;95251.91;;;11.03;61.88
19761;BME280;10039;42.632;23.408;2023-04-09T09:25:41;95278.50;;;11.32;62.24
19761;BME280;10039;42.632;23.408;2023-04-09T09:28:09;95227.44;;;11.08;61.80
19761;BME280;10039;42.632;23.408;2023-04-09T09:30:36;95249.38;;;11.18;62.06
19761;BME280;10039;42.632;23.408;2023-04-09T09:33:10;95232.13;;;11.23;61.26
19761;BME280;10039;42.632;23.408;2023-04-09T09:35:49;95243.94;;;11.25;60.83
19761;BME280;10039;42.632;23.408;2023-04-09T09:38:16;95249.47;;;11.34;61.65
19761;BME280;10039;42.632;23.408;2023-04-09T09:40:42;95279.25;;;11.59;60.02
19761;BME280;10039;42.632;23.408;2023-04-09T09:43:09;95247.22;;;11.56;60.02
19761;BME280;10039;42.632;23.408;2023-04-09T09:45:35;95246.88;;;11.73;60.03
19761;BME280;10039;42.632;23.408;2023-04-09T09:48:01;95223.38;;;11.65;59.62
19761;BME280;10039;42.632;23.408;2023-04-09T09:50:33;95210.78;;;11.42;59.64
19761;BME280;10039;42.632;23.408;2023-04-09T09:53:06;95227.00;;;11.74;59.65
19761;BME280;10039;42.632;23.408;2023-04-09T09:55:42;95250.03;;;12.07;59.06
19761;BME280;10039;42.632;23.408;2023-04-09T09:58:26;95245.50;;;12.04;58.27
19761;BME280;10039;42.632;23.408;2023-04-09T10:00:52;95235.59;;;12.05;58.29
19761;BME280;10039;42.632;23.408;2023-04-09T10:03:26;95224.56;;;12.19;58.17
19761;BME280;10039;42.632;23.408;2023-04-09T10:05:52;95207.25;;;12.42;58.43
19761;BME280;10039;42.632;23.408;2023-04-09T10:08:19;95191.63;;;12.57;57.30
19761;BME280;10039;42.632;23.408;2023-04-09T10:10:46;95221.25;;;12.82;56.48
19761;BME280;10039;42.632;23.408;2023-04-09T10:13:23;95237.34;;;12.98;56.43
19761;BME280;10039;42.632;23.408;2023-04-09T10:15:54;95205.38;;;12.91;56.08
19761;BME280;10039;42.632;23.408;2023-04-09T10:18:20;95227.47;;;12.95;56.70
19761;BME280;10039;42.632;23.408;2023-04-09T10:20:51;95204.84;;;12.80;56.88
19761;BME280;10039;42.632;23.408;2023-04-09T10:23:33;95202.41;;;12.85;55.58
19761;BME280;10039;42.632;23.408;2023-04-09T10:26:01;95176.56;;;12.79;56.60
19761;BME280;10039;42.632;23.408;2023-04-09T10:28:27;95179.81;;;12.86;55.34
19761;BME280;10039;42.632;23.408;2023-04-09T10:30:53;95200.50;;;13.18;55.30
19761;BME280;10039;42.632;23.408;2023-04-09T10:33:23;95186.44;;;12.98;54.58
19761;BME280;10039;42.632;23.408;2023-04-09T10:35:55;95171.28;;;12.75;54.89
19761;BME280;10039;42.632;23.408;2023-04-09T10:38:47;95181.19;;;12.94;55.06
19761;BME280;10039;42.632;23.408;2023-04-09T10:41:35;95205.16;;;13.30;55.65
19761;BME280;10039;42.632;23.408;2023-04-09T10:44:05;95165.69;;;12.86;55.08
19761;BME280;10039;42.632;23.408;2023-04-09T10:46:35;95175.78;;;12.78;54.69
19761;BME280;10039;42.632;23.408;2023-04-09T10:52:02;95201.63;;;13.33;53.95
19761;BME280;10039;42.632;23.408;2023-04-09T10:59:40;95181.84;;;13.43;54.76
19761;BME280;10039;42.632;23.408;2023-04-09T11:07:32;95157.75;;;13.27;52.34
19761;BME280;10039;42.632;23.408;2023-04-09T11:09:59;95164.22;;;13.29;52.64
19761;BME280;10039;42.632;23.408;2023-04-09T11:12:25;95140.59;;;13.24;52.67
19761;BME280;10039;42.632;23.408;2023-04-09T11:14:54;95139.16;;;13.36;51.66
19761;BME280;10039;42.632;23.408;2023-04-09T11:17:20;95168.97;;;13.38;53.58
19761;BME280;10039;42.632;23.408;2023-04-09T11:19:45;95144.94;;;13.34;51.54
19761;BME280;10039;42.632;23.408;2023-04-09T11:22:14;95113.97;;;13.17;50.58
19761;BME280;10039;42.632;23.408;2023-04-09T11:24:42;95158.47;;;13.15;49.30
19761;BME280;10039;42.632;23.408;2023-04-09T11:27:15;95116.72;;;13.01;49.25
19761;BME280;10039;42.632;23.408;2023-04-09T11:29:44;95141.44;;;13.21;49.88
19761;BME280;10039;42.632;23.408;2023-04-09T11:32:14;95110.09;;;13.06;48.35
19761;BME280;10039;42.632;23.408;2023-04-09T11:34:43;95110.66;;;13.13;48.19
19761;BME280;10039;42.632;23.408;2023-04-09T11:37:13;95151.63;;;13.54;48.76
19761;BME280;10039;42.632;23.408;2023-04-09T11:39:43;95150.78;;;13.57;47.12
19761;BME280;10039;42.632;23.408;2023-04-09T11:42:15;95114.31;;;13.47;48.14
19761;BME280;10039;42.632;23.408;2023-04-09T11:44:44;95124.03;;;13.70;48.78
19761;BME280;10039;42.632;23.408;2023-04-09T11:47:12;95135.72;;;13.76;48.81
19761;BME280;10039;42.632;23.408;2023-04-09T11:49:38;95112.19;;;13.67;46.77
19761;BME280;10039;42.632;23.408;2023-04-09T11:52:04;95141.94;;;13.73;47.65
19761;BME280;10039;42.632;23.408;2023-04-09T11:54:47;95111.75;;;13.56;47.30
19761;BME280;10039;42.632;23.408;2023-04-09T11:57:16;95104.03;;;13.58;46.47
19761;BME280;10039;42.632;23.408;2023-04-09T11:59:42;95105.84;;;13.61;46.89
19761;BME280;10039;42.632;23.408;2023-04-09T12:02:08;95131.97;;;13.86;45.96
19761;BME280;10039;42.632;23.408;2023-04-09T12:04:34;95102.63;;;13.54;46.83
19761;BME280;10039;42.632;23.408;2023-04-09T12:07:06;95095.50;;;13.35;46.69
19761;BME280;10039;42.632;23.408;2023-04-09T12:09:33;95097.66;;;13.40;45.89
19761;BME280;10039;42.632;23.408;2023-04-09T12:11:59;95087.25;;;13.42;46.84
19761;BME280;10039;42.632;23.408;2023-04-09T12:14:27;95125.63;;;13.80;46.11
19761;BME280;10039;42.632;23.408;2023-04-09T12:16:54;95115.34;;;13.78;45.81
19761;BME280;10039;42.632;23.408;2023-04-09T12:19:26;95115.38;;;14.03;47.02
19761;BME280;10039;42.632;23.408;2023-04-09T12:21:55;95086.81;;;13.84;46.72
19761;BME280;10039;42.632;23.408;2023-04-09T12:24:23;95086.69;;;13.88;47.05
19761;BME280;10039;42.632;23.408;2023-04-09T12:26:50;95076.69;;;13.88;48.03
19761;BME280;10039;42.632;23.408;2023-04-09T12:29:20;95101.66;;;14.14;48.31
19761;BME280;10039;42.632;23.408;2023-04-09T12:31:46;95078.13;;;14.05;47.74
19761;BME280;10039;42.632;23.408;2023-04-09T12:34:12;95062.97;;;14.11;47.16
19761;BME280;10039;42.632;23.408;2023-04-09T12:36:40;95102.91;;;14.47;47.22
19761;BME280;10039;42.632;23.408;2023-04-09T12:39:08;95053.09;;;14.33;45.94
19761;BME280;10039;42.632;23.408;2023-04-09T12:41:33;95101.19;;;14.65;47.16
19761;BME280;10039;42.632;23.408;2023-04-09T12:43:59;95103.47;;;14.88;46.89
19761;BME280;10039;42.632;23.408;2023-04-09T12:46:25;95103.47;;;14.88;46.32
19761;BME280;10039;42.632;23.408;2023-04-09T12:48:52;95097.41;;;14.75;47.01
19761;BME280;10039;42.632;23.408;2023-04-09T12:51:22;95102.84;;;14.84;46.67
19761;BME280;10039;42.632;23.408;2023-04-09T12:53:49;95087.84;;;14.74;46.10
19761;BME280;10039;42.632;23.408;2023-04-09T12:56:15;95117.63;;;14.67;46.73
19761;BME280;10039;42.632;23.408;2023-04-09T12:58:47;95060.81;;;14.44;46.69
19761;BME280;10039;42.632;23.408;2023-04-09T13:01:13;95094.69;;;14.87;46.46
19761;BME280;10039;42.632;23.408;2023-04-09T13:03:39;95062.13;;;14.39;46.38
19761;BME280;10039;42.632;23.408;2023-04-09T13:06:05;95079.06;;;14.49;46.34
19761;BME280;10039;42.632;23.408;2023-04-09T13:08:31;95065.13;;;14.41;47.01
19761;BME280;10039;42.632;23.408;2023-04-09T13:10:56;95064.13;;;14.60;46.54
19761;BME280;10039;42.632;23.408;2023-04-09T13:13:22;95058.69;;;14.72;46.47
19761;BME280;10039;42.632;23.408;2023-04-09T13:15:49;95058.34;;;14.83;45.19
19761;BME280;10039;42.632;23.408;2023-04-09T13:18:15;95083.25;;;14.96;45.52
19761;BME280;10039;42.632;23.408;2023-04-09T13:20:41;95069.34;;;14.76;46.35